ΕΜΥ, Εθνική Μετεωρολογική Υπηρεσία - Δελτία Καιρού, Προγνώσεις

ΑΕΡΟΝΑΥΤΙΛΙΑ

GREEK AIRPORTS CODES

LGST 231400Z 30015KT 9999 FEW025 16/09 Q1015 RMK FEW080=

EUROPEAN AIRPORTS CODES

LFPO 231400Z 01006KT 330V060 9999 BKN031 14/06 Q1029 NOSIG=